createdAt,value
2018-03-18T08:21:01.123Z,20.27
2018-03-18T08:23:29.506Z,22.53
2018-03-18T08:25:57.872Z,22.33
2018-03-18T08:28:32.323Z,23.13
2018-03-18T08:31:00.673Z,25.47
2018-03-18T08:33:30.483Z,23.80
2018-03-18T08:35:58.858Z,22.43
2018-03-18T08:38:27.346Z,26.13
2018-03-18T11:10:43.679Z,12.67
2018-03-18T11:13:34.641Z,19.07
2018-03-18T11:16:03.052Z,10.67
2018-03-18T11:18:31.629Z,13.83
2018-03-18T11:21:11.964Z,13.10
2018-03-18T11:23:40.133Z,14.73
2018-03-18T11:26:08.509Z,12.50
2018-03-18T11:28:36.880Z,11.60
2018-03-18T11:31:05.437Z,15.53
2018-03-18T11:33:33.777Z,9.67
2018-03-18T11:36:02.128Z,11.07
2018-03-18T11:38:30.811Z,10.80
2018-03-18T11:40:59.142Z,13.90
2018-03-18T11:43:27.543Z,10.60
2018-03-18T11:45:55.862Z,6.67
2018-03-18T11:48:24.355Z,9.17
2018-03-18T11:50:52.704Z,7.43
2018-03-18T11:53:21.041Z,11.00
2018-03-18T11:55:49.424Z,6.83
2018-03-18T11:58:17.953Z,9.33
2018-03-18T12:00:46.342Z,7.43
2018-03-18T12:03:14.710Z,6.23
2018-03-18T12:05:43.051Z,5.33
2018-03-18T12:08:33.290Z,8.17
2018-03-18T12:11:01.647Z,13.83
2018-03-18T12:13:29.983Z,10.13
2018-03-18T12:15:58.368Z,13.87
2018-03-18T12:18:31.286Z,16.97
2018-03-18T12:21:00.429Z,9.73
2018-03-18T12:23:30.368Z,12.97
2018-03-18T12:25:58.691Z,13.10
2018-03-18T12:28:27.121Z,12.90
2018-03-18T12:30:55.530Z,17.83
2018-03-18T12:33:23.882Z,22.40
2018-03-18T12:35:52.220Z,17.77
2018-03-18T12:38:20.542Z,15.10
2018-03-18T12:40:52.097Z,15.80
2018-03-18T12:43:33.321Z,17.20
2018-03-18T12:46:01.683Z,19.97
2018-03-18T12:48:30.119Z,29.90
2018-03-18T12:50:58.463Z,29.47
2018-03-18T12:53:26.887Z,16.07
2018-03-18T12:55:55.210Z,16.00
2018-03-18T12:58:23.542Z,11.87
2018-03-18T13:00:51.885Z,13.10
2018-03-18T13:03:20.209Z,11.77
2018-03-18T13:05:48.606Z,14.67
2018-03-18T13:08:17.439Z,15.87
2018-03-18T13:10:45.779Z,10.37
2018-03-18T13:13:14.099Z,10.23
2018-03-18T13:15:42.905Z,12.83
2018-03-18T13:18:11.241Z,12.47
